sensor_id;sensor_type;location;lat;lon;timestamp;P1;durP1;ratioP1;P2;durP2;ratioP2
8683;SDS011;4379;59.744;18.206;2022-08-19T04:41:12;27.75;;;22.42;;
8683;SDS011;4379;59.744;18.206;2022-08-19T04:43:59;24.13;;;20.42;;
8683;SDS011;4379;59.744;18.206;2022-08-19T04:46:30;23.33;;;20.83;;
8683;SDS011;4379;59.744;18.206;2022-08-19T04:49:07;21.92;;;19.77;;
8683;SDS011;4379;59.744;18.206;2022-08-19T04:51:40;21.40;;;19.40;;
8683;SDS011;4379;59.744;18.206;2022-08-19T04:54:11;22.90;;;20.67;;
8683;SDS011;4379;59.744;18.206;2022-08-19T04:56:39;22.75;;;20.65;;
8683;SDS011;4379;59.744;18.206;2022-08-19T04:59:07;21.80;;;19.63;;
8683;SDS011;4379;59.744;18.206;2022-08-19T05:01:35;22.50;;;20.30;;
8683;SDS011;4379;59.744;18.206;2022-08-19T05:04:04;23.67;;;21.17;;
8683;SDS011;4379;59.744;18.206;2022-08-19T05:06:33;23.90;;;21.42;;
8683;SDS011;4379;59.744;18.206;2022-08-19T05:09:04;21.75;;;19.77;;
8683;SDS011;4379;59.744;18.206;2022-08-19T05:11:34;21.67;;;19.55;;
8683;SDS011;4379;59.744;18.206;2022-08-19T05:14:11;20.80;;;18.98;;
8683;SDS011;4379;59.744;18.206;2022-08-19T05:16:41;20.58;;;18.58;;
8683;SDS011;4379;59.744;18.206;2022-08-19T05:19:13;20.58;;;18.70;;
8683;SDS011;4379;59.744;18.206;2022-08-19T05:22:04;19.67;;;17.92;;
8683;SDS011;4379;59.744;18.206;2022-08-19T05:24:51;19.23;;;17.50;;
8683;SDS011;4379;59.744;18.206;2022-08-19T05:27:38;20.92;;;18.88;;
8683;SDS011;4379;59.744;18.206;2022-08-19T05:30:06;20.42;;;18.63;;
8683;SDS011;4379;59.744;18.206;2022-08-19T05:32:34;22.73;;;20.55;;
8683;SDS011;4379;59.744;18.206;2022-08-19T05:35:02;25.23;;;21.80;;
8683;SDS011;4379;59.744;18.206;2022-08-19T05:37:31;21.25;;;19.33;;
8683;SDS011;4379;59.744;18.206;2022-08-19T05:39:58;20.58;;;18.73;;
8683;SDS011;4379;59.744;18.206;2022-08-19T05:42:28;19.98;;;18.17;;
8683;SDS011;4379;59.744;18.206;2022-08-19T05:44:57;18.50;;;17.08;;
8683;SDS011;4379;59.744;18.206;2022-08-19T05:47:25;18.42;;;16.83;;
8683;SDS011;4379;59.744;18.206;2022-08-19T05:49:52;18.17;;;16.60;;
8683;SDS011;4379;59.744;18.206;2022-08-19T05:52:20;16.90;;;15.50;;
8683;SDS011;4379;59.744;18.206;2022-08-19T05:54:52;17.48;;;16.17;;
8683;SDS011;4379;59.744;18.206;2022-08-19T05:57:23;18.30;;;16.70;;
8683;SDS011;4379;59.744;18.206;2022-08-19T05:59:51;18.15;;;16.75;;
8683;SDS011;4379;59.744;18.206;2022-08-19T06:02:28;18.63;;;17.08;;
8683;SDS011;4379;59.744;18.206;2022-08-19T06:04:57;20.02;;;18.35;;
8683;SDS011;4379;59.744;18.206;2022-08-19T06:07:25;19.55;;;17.85;;
8683;SDS011;4379;59.744;18.206;2022-08-19T06:09:56;18.88;;;17.17;;
8683;SDS011;4379;59.744;18.206;2022-08-19T06:12:33;18.30;;;16.90;;
8683;SDS011;4379;59.744;18.206;2022-08-19T06:15:03;17.35;;;15.98;;
8683;SDS011;4379;59.744;18.206;2022-08-19T06:17:33;18.92;;;17.33;;
8683;SDS011;4379;59.744;18.206;2022-08-19T06:20:05;18.92;;;17.33;;
8683;SDS011;4379;59.744;18.206;2022-08-19T06:22:45;18.63;;;17.00;;
8683;SDS011;4379;59.744;18.206;2022-08-19T06:25:14;18.58;;;17.08;;
8683;SDS011;4379;59.744;18.206;2022-08-19T06:27:42;19.35;;;17.67;;
8683;SDS011;4379;59.744;18.206;2022-08-19T06:30:30;18.20;;;16.70;;
8683;SDS011;4379;59.744;18.206;2022-08-19T06:32:58;18.83;;;17.40;;
8683;SDS011;4379;59.744;18.206;2022-08-19T06:35:25;17.67;;;16.27;;
8683;SDS011;4379;59.744;18.206;2022-08-19T06:37:53;17.38;;;15.90;;
8683;SDS011;4379;59.744;18.206;2022-08-19T06:40:21;18.02;;;16.35;;
8683;SDS011;4379;59.744;18.206;2022-08-19T06:42:49;17.27;;;15.95;;
8683;SDS011;4379;59.744;18.206;2022-08-19T06:45:21;15.77;;;14.70;;
8683;SDS011;4379;59.744;18.206;2022-08-19T06:47:50;16.33;;;15.05;;
8683;SDS011;4379;59.744;18.206;2022-08-19T06:50:21;16.10;;;14.98;;
8683;SDS011;4379;59.744;18.206;2022-08-19T06:52:52;15.48;;;14.48;;
8683;SDS011;4379;59.744;18.206;2022-08-19T06:55:21;13.75;;;12.85;;
8683;SDS011;4379;59.744;18.206;2022-08-19T06:57:49;11.48;;;10.77;;
8683;SDS011;4379;59.744;18.206;2022-08-19T07:00:20;9.75;;;9.25;;
8683;SDS011;4379;59.744;18.206;2022-08-19T07:02:48;10.43;;;9.73;;
8683;SDS011;4379;59.744;18.206;2022-08-19T07:05:24;10.50;;;9.90;;
8683;SDS011;4379;59.744;18.206;2022-08-19T07:07:51;9.75;;;9.23;;
8683;SDS011;4379;59.744;18.206;2022-08-19T07:10:22;9.60;;;9.00;;
8683;SDS011;4379;59.744;18.206;2022-08-19T07:12:51;9.88;;;9.15;;
8683;SDS011;4379;59.744;18.206;2022-08-19T07:15:20;9.15;;;8.68;;
8683;SDS011;4379;59.744;18.206;2022-08-19T07:17:48;9.75;;;9.07;;
8683;SDS011;4379;59.744;18.206;2022-08-19T07:20:18;9.00;;;8.50;;
8683;SDS011;4379;59.744;18.206;2022-08-19T07:22:46;11.15;;;8.05;;
8683;SDS011;4379;59.744;18.206;2022-08-19T07:25:14;8.77;;;8.20;;
8683;SDS011;4379;59.744;18.206;2022-08-19T07:27:43;8.35;;;7.70;;
8683;SDS011;4379;59.744;18.206;2022-08-19T07:30:19;8.35;;;7.75;;
8683;SDS011;4379;59.744;18.206;2022-08-19T07:33:04;8.40;;;8.00;;
8683;SDS011;4379;59.744;18.206;2022-08-19T07:35:31;7.85;;;7.35;;
8683;SDS011;4379;59.744;18.206;2022-08-19T07:37:59;7.60;;;7.10;;
8683;SDS011;4379;59.744;18.206;2022-08-19T07:40:29;7.72;;;7.32;;
8683;SDS011;4379;59.744;18.206;2022-08-19T07:42:57;6.75;;;6.35;;
8683;SDS011;4379;59.744;18.206;2022-08-19T07:45:24;7.97;;;7.38;;
8683;SDS011;4379;59.744;18.206;2022-08-19T07:47:52;7.90;;;7.20;;
8683;SDS011;4379;59.744;18.206;2022-08-19T07:50:20;8.20;;;7.60;;
8683;SDS011;4379;59.744;18.206;2022-08-19T07:52:48;8.00;;;7.30;;
8683;SDS011;4379;59.744;18.206;2022-08-19T07:55:18;7.75;;;7.25;;
8683;SDS011;4379;59.744;18.206;2022-08-19T07:58:07;7.35;;;6.82;;
8683;SDS011;4379;59.744;18.206;2022-08-19T08:00:38;7.10;;;6.60;;
8683;SDS011;4379;59.744;18.206;2022-08-19T08:03:05;6.90;;;6.40;;
8683;SDS011;4379;59.744;18.206;2022-08-19T08:05:33;6.68;;;6.28;;
8683;SDS011;4379;59.744;18.206;2022-08-19T08:08:19;6.85;;;6.45;;
8683;SDS011;4379;59.744;18.206;2022-08-19T08:11:14;7.00;;;6.50;;
8683;SDS011;4379;59.744;18.206;2022-08-19T08:13:46;6.22;;;5.85;;
8683;SDS011;4379;59.744;18.206;2022-08-19T08:16:30;6.40;;;5.90;;
8683;SDS011;4379;59.744;18.206;2022-08-19T08:19:05;6.05;;;5.65;;
8683;SDS011;4379;59.744;18.206;2022-08-19T08:21:52;5.78;;;5.45;;
8683;SDS011;4379;59.744;18.206;2022-08-19T08:24:21;6.40;;;5.80;;
8683;SDS011;4379;59.744;18.206;2022-08-19T08:26:55;5.45;;;4.95;;
8683;SDS011;4379;59.744;18.206;2022-08-19T08:29:25;5.22;;;4.82;;
8683;SDS011;4379;59.744;18.206;2022-08-19T08:32:00;6.88;;;5.70;;
8683;SDS011;4379;59.744;18.206;2022-08-19T08:34:40;5.80;;;5.35;;
8683;SDS011;4379;59.744;18.206;2022-08-19T08:37:07;5.25;;;4.82;;
8683;SDS011;4379;59.744;18.206;2022-08-19T08:39:35;7.97;;;5.00;;
8683;SDS011;4379;59.744;18.206;2022-08-19T08:42:12;7.50;;;5.05;;
8683;SDS011;4379;59.744;18.206;2022-08-19T08:44:49;5.15;;;4.78;;
8683;SDS011;4379;59.744;18.206;2022-08-19T08:47:32;5.10;;;4.80;;
8683;SDS011;4379;59.744;18.206;2022-08-19T08:50:09;5.00;;;4.60;;
8683;SDS011;4379;59.744;18.206;2022-08-19T08:52:47;6.32;;;5.40;;
8683;SDS011;4379;59.744;18.206;2022-08-19T08:55:22;6.28;;;5.22;;
8683;SDS011;4379;59.744;18.206;2022-08-19T08:57:58;5.22;;;4.90;;
8683;SDS011;4379;59.744;18.206;2022-08-19T09:00:27;5.70;;;5.20;;
8683;SDS011;4379;59.744;18.206;2022-08-19T09:02:58;5.25;;;4.72;;
8683;SDS011;4379;59.744;18.206;2022-08-19T09:05:36;6.50;;;4.93;;
8683;SDS011;4379;59.744;18.206;2022-08-19T09:10:57;5.72;;;5.28;;
8683;SDS011;4379;59.744;18.206;2022-08-19T09:16:57;6.03;;;5.53;;
8683;SDS011;4379;59.744;18.206;2022-08-19T09:19:26;5.88;;;5.28;;
8683;SDS011;4379;59.744;18.206;2022-08-19T09:21:57;5.82;;;5.30;;
8683;SDS011;4379;59.744;18.206;2022-08-19T09:24:27;5.43;;;4.97;;
8683;SDS011;4379;59.744;18.206;2022-08-19T09:26:56;6.43;;;5.18;;
8683;SDS011;4379;59.744;18.206;2022-08-19T09:29:24;7.28;;;5.10;;
8683;SDS011;4379;59.744;18.206;2022-08-19T09:31:51;5.20;;;4.80;;
8683;SDS011;4379;59.744;18.206;2022-08-19T09:34:18;6.78;;;4.78;;
8683;SDS011;4379;59.744;18.206;2022-08-19T09:36:48;5.00;;;4.57;;
8683;SDS011;4379;59.744;18.206;2022-08-19T09:39:21;5.47;;;4.95;;
8683;SDS011;4379;59.744;18.206;2022-08-19T09:41:49;5.18;;;4.70;;
8683;SDS011;4379;59.744;18.206;2022-08-19T09:44:17;7.65;;;5.00;;
8683;SDS011;4379;59.744;18.206;2022-08-19T09:46:47;5.50;;;4.95;;
8683;SDS011;4379;59.744;18.206;2022-08-19T09:49:15;5.05;;;4.75;;
8683;SDS011;4379;59.744;18.206;2022-08-19T09:51:48;5.10;;;4.70;;
8683;SDS011;4379;59.744;18.206;2022-08-19T09:54:17;5.05;;;4.57;;
8683;SDS011;4379;59.744;18.206;2022-08-19T09:56:50;5.18;;;4.70;;
8683;SDS011;4379;59.744;18.206;2022-08-19T09:59:22;9.30;;;4.90;;
8683;SDS011;4379;59.744;18.206;2022-08-19T10:01:50;7.10;;;5.40;;
8683;SDS011;4379;59.744;18.206;2022-08-19T10:04:19;6.95;;;5.13;;
8683;SDS011;4379;59.744;18.206;2022-08-19T10:06:48;6.55;;;4.63;;
8683;SDS011;4379;59.744;18.206;2022-08-19T10:09:20;6.95;;;5.07;;
8683;SDS011;4379;59.744;18.206;2022-08-19T10:12:00;5.57;;;4.88;;
8683;SDS011;4379;59.744;18.206;2022-08-19T10:14:29;5.50;;;4.80;;
8683;SDS011;4379;59.744;18.206;2022-08-19T10:17:00;5.20;;;4.80;;
8683;SDS011;4379;59.744;18.206;2022-08-19T10:19:45;5.78;;;4.70;;
8683;SDS011;4379;59.744;18.206;2022-08-19T10:22:21;5.00;;;4.50;;
8683;SDS011;4379;59.744;18.206;2022-08-19T10:24:51;5.15;;;4.65;;
8683;SDS011;4379;59.744;18.206;2022-08-19T10:27:19;4.75;;;4.38;;
8683;SDS011;4379;59.744;18.206;2022-08-19T10:29:46;5.95;;;4.60;;
8683;SDS011;4379;59.744;18.206;2022-08-19T10:32:14;5.10;;;4.70;;
8683;SDS011;4379;59.744;18.206;2022-08-19T10:34:42;4.53;;;4.22;;
8683;SDS011;4379;59.744;18.206;2022-08-19T10:37:15;5.05;;;4.63;;
8683;SDS011;4379;59.744;18.206;2022-08-19T10:39:56;5.15;;;4.82;;
8683;SDS011;4379;59.744;18.206;2022-08-19T10:42:25;4.53;;;4.13;;
8683;SDS011;4379;59.744;18.206;2022-08-19T10:44:52;5.15;;;4.75;;
8683;SDS011;4379;59.744;18.206;2022-08-19T10:47:20;5.13;;;4.68;;
8683;SDS011;4379;59.744;18.206;2022-08-19T10:49:52;5.30;;;4.80;;
8683;SDS011;4379;59.744;18.206;2022-08-19T10:52:43;5.20;;;4.70;;
8683;SDS011;4379;59.744;18.206;2022-08-19T10:55:20;4.68;;;4.20;;
8683;SDS011;4379;59.744;18.206;2022-08-19T10:58:13;4.47;;;4.13;;
8683;SDS011;4379;59.744;18.206;2022-08-19T11:00:42;5.35;;;4.20;;
8683;SDS011;4379;59.744;18.206;2022-08-19T11:03:17;5.00;;;4.60;;
8683;SDS011;4379;59.744;18.206;2022-08-19T11:05:46;4.65;;;4.25;;
8683;SDS011;4379;59.744;18.206;2022-08-19T11:08:39;4.80;;;4.45;;
8683;SDS011;4379;59.744;18.206;2022-08-19T11:11:08;5.13;;;4.63;;
8683;SDS011;4379;59.744;18.206;2022-08-19T11:13:36;5.30;;;4.80;;
8683;SDS011;4379;59.744;18.206;2022-08-19T11:16:07;4.75;;;4.28;;
8683;SDS011;4379;59.744;18.206;2022-08-19T11:18:42;5.18;;;4.70;;
8683;SDS011;4379;59.744;18.206;2022-08-19T11:21:15;4.82;;;4.30;;
8683;SDS011;4379;59.744;18.206;2022-08-19T11:23:46;4.47;;;4.18;;
8683;SDS011;4379;59.744;18.206;2022-08-19T11:26:16;4.55;;;4.20;;
8683;SDS011;4379;59.744;18.206;2022-08-19T11:28:44;4.57;;;4.18;;
8683;SDS011;4379;59.744;18.206;2022-08-19T11:31:14;4.82;;;4.22;;
8683;SDS011;4379;59.744;18.206;2022-08-19T11:33:44;4.65;;;4.35;;
8683;SDS011;4379;59.744;18.206;2022-08-19T11:36:13;4.70;;;4.38;;
8683;SDS011;4379;59.744;18.206;2022-08-19T11:38:42;5.57;;;4.68;;
8683;SDS011;4379;59.744;18.206;2022-08-19T11:41:11;5.22;;;4.47;;
8683;SDS011;4379;59.744;18.206;2022-08-19T11:43:38;4.65;;;4.28;;
8683;SDS011;4379;59.744;18.206;2022-08-19T11:46:07;4.88;;;4.30;;
8683;SDS011;4379;59.744;18.206;2022-08-19T11:48:37;4.97;;;4.47;;
8683;SDS011;4379;59.744;18.206;2022-08-19T11:51:06;4.43;;;4.13;;
8683;SDS011;4379;59.744;18.206;2022-08-19T11:53:37;5.00;;;4.50;;
8683;SDS011;4379;59.744;18.206;2022-08-19T11:56:06;4.60;;;4.40;;
8683;SDS011;4379;59.744;18.206;2022-08-19T11:58:36;5.05;;;4.50;;
8683;SDS011;4379;59.744;18.206;2022-08-19T12:01:05;4.35;;;4.15;;
8683;SDS011;4379;59.744;18.206;2022-08-19T12:03:37;4.75;;;4.45;;
8683;SDS011;4379;59.744;18.206;2022-08-19T12:06:09;4.97;;;4.30;;
8683;SDS011;4379;59.744;18.206;2022-08-19T12:08:40;4.80;;;4.32;;
8683;SDS011;4379;59.744;18.206;2022-08-19T12:11:08;4.85;;;4.40;;
8683;SDS011;4379;59.744;18.206;2022-08-19T12:13:37;4.82;;;4.43;;
8683;SDS011;4379;59.744;18.206;2022-08-19T12:16:14;5.03;;;4.68;;
8683;SDS011;4379;59.744;18.206;2022-08-19T12:18:43;4.57;;;4.28;;
8683;SDS011;4379;59.744;18.206;2022-08-19T12:21:15;5.15;;;4.80;;
8683;SDS011;4379;59.744;18.206;2022-08-19T12:23:50;5.03;;;4.65;;
8683;SDS011;4379;59.744;18.206;2022-08-19T12:26:21;4.93;;;4.50;;
8683;SDS011;4379;59.744;18.206;2022-08-19T12:28:50;5.10;;;4.70;;
8683;SDS011;4379;59.744;18.206;2022-08-19T12:31:17;6.20;;;4.55;;
8683;SDS011;4379;59.744;18.206;2022-08-19T12:33:46;4.95;;;4.65;;
8683;SDS011;4379;59.744;18.206;2022-08-19T12:36:15;5.10;;;4.72;;
8683;SDS011;4379;59.744;18.206;2022-08-19T12:38:44;5.40;;;4.90;;
8683;SDS011;4379;59.744;18.206;2022-08-19T12:41:14;5.53;;;4.90;;
8683;SDS011;4379;59.744;18.206;2022-08-19T12:43:45;5.30;;;5.00;;
8683;SDS011;4379;59.744;18.206;2022-08-19T12:46:13;4.63;;;4.32;;
8683;SDS011;4379;59.744;18.206;2022-08-19T12:48:43;6.00;;;5.20;;
8683;SDS011;4379;59.744;18.206;2022-08-19T12:51:17;5.05;;;4.60;;
8683;SDS011;4379;59.744;18.206;2022-08-19T12:53:49;5.70;;;4.80;;
8683;SDS011;4379;59.744;18.206;2022-08-19T12:56:16;5.20;;;4.80;;
8683;SDS011;4379;59.744;18.206;2022-08-19T12:58:48;5.00;;;4.50;;
8683;SDS011;4379;59.744;18.206;2022-08-19T13:01:18;5.28;;;4.63;;
8683;SDS011;4379;59.744;18.206;2022-08-19T13:03:49;5.00;;;4.55;;
8683;SDS011;4379;59.744;18.206;2022-08-19T13:06:19;5.05;;;4.65;;
8683;SDS011;4379;59.744;18.206;2022-08-19T13:08:47;5.50;;;5.00;;
8683;SDS011;4379;59.744;18.206;2022-08-19T13:11:15;5.95;;;5.40;;
8683;SDS011;4379;59.744;18.206;2022-08-19T13:13:47;5.32;;;5.03;;
8683;SDS011;4379;59.744;18.206;2022-08-19T13:16:18;5.20;;;4.80;;
8683;SDS011;4379;59.744;18.206;2022-08-19T13:18:46;5.38;;;4.95;;
8683;SDS011;4379;59.744;18.206;2022-08-19T13:21:14;5.15;;;4.72;;
8683;SDS011;4379;59.744;18.206;2022-08-19T13:23:46;5.63;;;5.13;;
8683;SDS011;4379;59.744;18.206;2022-08-19T13:26:14;5.88;;;4.55;;
8683;SDS011;4379;59.744;18.206;2022-08-19T13:28:43;5.47;;;5.03;;
8683;SDS011;4379;59.744;18.206;2022-08-19T13:31:31;6.05;;;5.53;;
8683;SDS011;4379;59.744;18.206;2022-08-19T13:34:25;5.47;;;5.03;;
8683;SDS011;4379;59.744;18.206;2022-08-19T13:36:59;5.28;;;4.78;;
8683;SDS011;4379;59.744;18.206;2022-08-19T13:39:30;5.70;;;5.30;;
8683;SDS011;4379;59.744;18.206;2022-08-19T13:42:00;5.45;;;5.03;;
8683;SDS011;4379;59.744;18.206;2022-08-19T13:44:31;6.68;;;5.10;;
8683;SDS011;4379;59.744;18.206;2022-08-19T13:47:01;5.22;;;4.80;;
8683;SDS011;4379;59.744;18.206;2022-08-19T13:49:34;5.68;;;5.13;;
8683;SDS011;4379;59.744;18.206;2022-08-19T13:52:04;5.53;;;5.10;;
8683;SDS011;4379;59.744;18.206;2022-08-19T13:54:32;7.03;;;5.45;;
8683;SDS011;4379;59.744;18.206;2022-08-19T13:57:01;7.28;;;5.13;;
8683;SDS011;4379;59.744;18.206;2022-08-19T13:59:28;5.80;;;5.28;;
8683;SDS011;4379;59.744;18.206;2022-08-19T14:01:59;6.55;;;5.20;;
8683;SDS011;4379;59.744;18.206;2022-08-19T14:04:28;7.40;;;5.00;;
8683;SDS011;4379;59.744;18.206;2022-08-19T14:06:55;5.88;;;5.45;;
8683;SDS011;4379;59.744;18.206;2022-08-19T14:09:23;5.32;;;5.03;;
8683;SDS011;4379;59.744;18.206;2022-08-19T14:11:51;5.53;;;5.00;;
8683;SDS011;4379;59.744;18.206;2022-08-19T14:14:18;5.75;;;5.28;;
8683;SDS011;4379;59.744;18.206;2022-08-19T14:16:45;5.53;;;5.03;;
8683;SDS011;4379;59.744;18.206;2022-08-19T14:19:13;5.97;;;5.10;;
8683;SDS011;4379;59.744;18.206;2022-08-19T14:21:41;6.07;;;5.57;;
8683;SDS011;4379;59.744;18.206;2022-08-19T14:24:09;5.97;;;5.47;;
8683;SDS011;4379;59.744;18.206;2022-08-19T14:26:37;5.28;;;4.97;;
8683;SDS011;4379;59.744;18.206;2022-08-19T14:29:08;5.80;;;5.30;;
8683;SDS011;4379;59.744;18.206;2022-08-19T14:31:39;7.13;;;5.47;;
8683;SDS011;4379;59.744;18.206;2022-08-19T14:34:09;5.28;;;4.78;;
8683;SDS011;4379;59.744;18.206;2022-08-19T14:36:37;5.43;;;5.07;;
8683;SDS011;4379;59.744;18.206;2022-08-19T14:39:08;6.57;;;5.57;;
8683;SDS011;4379;59.744;18.206;2022-08-19T14:41:39;6.15;;;5.63;;
8683;SDS011;4379;59.744;18.206;2022-08-19T14:44:14;6.63;;;5.85;;
8683;SDS011;4379;59.744;18.206;2022-08-19T14:46:42;7.25;;;5.97;;
8683;SDS011;4379;59.744;18.206;2022-08-19T14:49:15;6.50;;;5.95;;
8683;SDS011;4379;59.744;18.206;2022-08-19T14:51:43;6.25;;;5.63;;
8683;SDS011;4379;59.744;18.206;2022-08-19T14:54:12;6.72;;;6.00;;
8683;SDS011;4379;59.744;18.206;2022-08-19T14:56:40;8.15;;;5.35;;
8683;SDS011;4379;59.744;18.206;2022-08-19T14:59:07;6.45;;;5.80;;
8683;SDS011;4379;59.744;18.206;2022-08-19T15:01:36;6.28;;;5.80;;
8683;SDS011;4379;59.744;18.206;2022-08-19T15:04:05;7.47;;;5.63;;
8683;SDS011;4379;59.744;18.206;2022-08-19T15:06:36;6.32;;;5.70;;
8683;SDS011;4379;59.744;18.206;2022-08-19T15:09:09;5.78;;;5.43;;
8683;SDS011;4379;59.744;18.206;2022-08-19T15:11:39;5.95;;;5.55;;
8683;SDS011;4379;59.744;18.206;2022-08-19T15:14:09;6.13;;;5.53;;
8683;SDS011;4379;59.744;18.206;2022-08-19T15:16:54;6.40;;;5.80;;
8683;SDS011;4379;59.744;18.206;2022-08-19T15:19:22;6.85;;;6.03;;
8683;SDS011;4379;59.744;18.206;2022-08-19T15:21:50;6.97;;;5.80;;
8683;SDS011;4379;59.744;18.206;2022-08-19T15:24:21;8.38;;;5.85;;
8683;SDS011;4379;59.744;18.206;2022-08-19T15:26:52;6.75;;;6.10;;
8683;SDS011;4379;59.744;18.206;2022-08-19T15:29:22;6.25;;;5.75;;
8683;SDS011;4379;59.744;18.206;2022-08-19T15:31:51;6.05;;;5.55;;
8683;SDS011;4379;59.744;18.206;2022-08-19T15:34:23;9.52;;;6.60;;
8683;SDS011;4379;59.744;18.206;2022-08-19T15:36:52;7.43;;;6.80;;
8683;SDS011;4379;59.744;18.206;2022-08-19T15:39:19;6.95;;;6.28;;
8683;SDS011;4379;59.744;18.206;2022-08-19T15:41:47;6.50;;;6.00;;
8683;SDS011;4379;59.744;18.206;2022-08-19T15:44:16;7.32;;;6.47;;
8683;SDS011;4379;59.744;18.206;2022-08-19T15:46:47;8.00;;;6.95;;
8683;SDS011;4379;59.744;18.206;2022-08-19T15:49:16;7.25;;;6.10;;
8683;SDS011;4379;59.744;18.206;2022-08-19T15:51:45;7.80;;;6.35;;
8683;SDS011;4379;59.744;18.206;2022-08-19T15:54:17;9.00;;;5.97;;
8683;SDS011;4379;59.744;18.206;2022-08-19T15:56:50;7.88;;;6.07;;
8683;SDS011;4379;59.744;18.206;2022-08-19T15:59:37;6.38;;;5.90;;
8683;SDS011;4379;59.744;18.206;2022-08-19T16:02:28;6.45;;;5.85;;
8683;SDS011;4379;59.744;18.206;2022-08-19T16:05:25;6.60;;;6.00;;
8683;SDS011;4379;59.744;18.206;2022-08-19T16:08:11;6.47;;;5.90;;
8683;SDS011;4379;59.744;18.206;2022-08-19T16:10:39;7.07;;;5.93;;
8683;SDS011;4379;59.744;18.206;2022-08-19T16:13:06;6.22;;;5.63;;
8683;SDS011;4379;59.744;18.206;2022-08-19T16:15:35;7.13;;;5.70;;
8683;SDS011;4379;59.744;18.206;2022-08-19T16:18:02;6.47;;;5.82;;
8683;SDS011;4379;59.744;18.206;2022-08-19T16:20:30;6.57;;;5.95;;
8683;SDS011;4379;59.744;18.206;2022-08-19T16:23:01;8.45;;;5.18;;
8683;SDS011;4379;59.744;18.206;2022-08-19T16:25:30;8.43;;;5.45;;
8683;SDS011;4379;59.744;18.206;2022-08-19T16:27:58;7.45;;;5.80;;
8683;SDS011;4379;59.744;18.206;2022-08-19T16:30:34;6.28;;;5.50;;
8683;SDS011;4379;59.744;18.206;2022-08-19T16:33:04;5.75;;;5.35;;
8683;SDS011;4379;59.744;18.206;2022-08-19T16:35:32;5.75;;;5.35;;
8683;SDS011;4379;59.744;18.206;2022-08-19T16:37:59;5.72;;;5.22;;
8683;SDS011;4379;59.744;18.206;2022-08-19T16:40:28;8.93;;;5.55;;
8683;SDS011;4379;59.744;18.206;2022-08-19T16:42:55;9.27;;;5.75;;
8683;SDS011;4379;59.744;18.206;2022-08-19T16:45:23;5.80;;;5.18;;
8683;SDS011;4379;59.744;18.206;2022-08-19T16:47:50;5.78;;;5.35;;
8683;SDS011;4379;59.744;18.206;2022-08-19T16:50:17;6.95;;;5.10;;
8683;SDS011;4379;59.744;18.206;2022-08-19T16:53:01;7.95;;;5.50;;
8683;SDS011;4379;59.744;18.206;2022-08-19T16:55:33;6.20;;;5.65;;
8683;SDS011;4379;59.744;18.206;2022-08-19T16:58:00;6.13;;;5.53;;
8683;SDS011;4379;59.744;18.206;2022-08-19T17:00:30;6.13;;;5.63;;
8683;SDS011;4379;59.744;18.206;2022-08-19T17:03:07;5.70;;;5.30;;
8683;SDS011;4379;59.744;18.206;2022-08-19T17:05:44;8.07;;;5.80;;
8683;SDS011;4379;59.744;18.206;2022-08-19T17:08:14;8.35;;;6.03;;
8683;SDS011;4379;59.744;18.206;2022-08-19T17:10:48;6.65;;;5.82;;
8683;SDS011;4379;59.744;18.206;2022-08-19T17:13:36;6.78;;;6.18;;
8683;SDS011;4379;59.744;18.206;2022-08-19T17:19:45;7.43;;;5.55;;
8683;SDS011;4379;59.744;18.206;2022-08-19T17:22:13;6.80;;;5.80;;
8683;SDS011;4379;59.744;18.206;2022-08-19T17:24:41;6.13;;;5.55;;
8683;SDS011;4379;59.744;18.206;2022-08-19T17:27:08;9.80;;;5.63;;
8683;SDS011;4379;59.744;18.206;2022-08-19T17:29:35;6.93;;;6.22;;
8683;SDS011;4379;59.744;18.206;2022-08-19T17:32:03;6.63;;;6.13;;
8683;SDS011;4379;59.744;18.206;2022-08-19T17:34:33;7.00;;;6.30;;
8683;SDS011;4379;59.744;18.206;2022-08-19T17:37:00;6.18;;;5.75;;
8683;SDS011;4379;59.744;18.206;2022-08-19T17:39:27;8.13;;;6.53;;
8683;SDS011;4379;59.744;18.206;2022-08-19T17:42:02;7.13;;;6.55;;
8683;SDS011;4379;59.744;18.206;2022-08-19T17:44:31;6.97;;;6.13;;
8683;SDS011;4379;59.744;18.206;2022-08-19T17:46:59;9.32;;;6.30;;
8683;SDS011;4379;59.744;18.206;2022-08-19T17:49:27;6.60;;;6.10;;
8683;SDS011;4379;59.744;18.206;2022-08-19T17:51:58;7.38;;;6.63;;
8683;SDS011;4379;59.744;18.206;2022-08-19T17:54:25;6.68;;;6.20;;
8683;SDS011;4379;59.744;18.206;2022-08-19T17:56:59;6.90;;;6.22;;
8683;SDS011;4379;59.744;18.206;2022-08-19T17:59:27;9.73;;;6.95;;
8683;SDS011;4379;59.744;18.206;2022-08-19T18:01:56;7.82;;;6.88;;
8683;SDS011;4379;59.744;18.206;2022-08-19T18:04:25;7.88;;;6.40;;
8683;SDS011;4379;59.744;18.206;2022-08-19T18:06:55;7.45;;;6.85;;
8683;SDS011;4379;59.744;18.206;2022-08-19T18:09:27;7.72;;;7.10;;
8683;SDS011;4379;59.744;18.206;2022-08-19T18:12:11;8.85;;;7.20;;
8683;SDS011;4379;59.744;18.206;2022-08-19T18:14:39;9.15;;;8.38;;
8683;SDS011;4379;59.744;18.206;2022-08-19T18:17:09;8.23;;;7.45;;
8683;SDS011;4379;59.744;18.206;2022-08-19T18:19:39;7.97;;;7.47;;
8683;SDS011;4379;59.744;18.206;2022-08-19T18:22:25;8.77;;;7.88;;
8683;SDS011;4379;59.744;18.206;2022-08-19T18:24:54;8.52;;;7.68;;
8683;SDS011;4379;59.744;18.206;2022-08-19T18:27:24;9.27;;;7.45;;
8683;SDS011;4379;59.744;18.206;2022-08-19T18:29:53;10.70;;;7.47;;
8683;SDS011;4379;59.744;18.206;2022-08-19T18:32:29;8.10;;;7.40;;
8683;SDS011;4379;59.744;18.206;2022-08-19T18:35:04;10.50;;;8.35;;
8683;SDS011;4379;59.744;18.206;2022-08-19T18:37:37;8.13;;;7.53;;
8683;SDS011;4379;59.744;18.206;2022-08-19T18:40:06;8.98;;;8.07;;
8683;SDS011;4379;59.744;18.206;2022-08-19T18:42:55;8.90;;;8.10;;
8683;SDS011;4379;59.744;18.206;2022-08-19T18:45:39;9.25;;;8.27;;
8683;SDS011;4379;59.744;18.206;2022-08-19T18:48:27;9.45;;;8.65;;
8683;SDS011;4379;59.744;18.206;2022-08-19T18:51:14;12.80;;;8.48;;
8683;SDS011;4379;59.744;18.206;2022-08-19T18:53:44;9.30;;;8.43;;
8683;SDS011;4379;59.744;18.206;2022-08-19T18:56:18;8.93;;;8.23;;
8683;SDS011;4379;59.744;18.206;2022-08-19T18:58:47;9.63;;;8.68;;
8683;SDS011;4379;59.744;18.206;2022-08-19T19:01:16;9.77;;;8.70;;
8683;SDS011;4379;59.744;18.206;2022-08-19T19:03:48;10.20;;;9.32;;
8683;SDS011;4379;59.744;18.206;2022-08-19T19:06:23;9.60;;;8.90;;
8683;SDS011;4379;59.744;18.206;2022-08-19T19:08:55;10.10;;;9.32;;
8683;SDS011;4379;59.744;18.206;2022-08-19T19:11:28;10.05;;;9.20;;
8683;SDS011;4379;59.744;18.206;2022-08-19T19:13:59;11.45;;;9.77;;
8683;SDS011;4379;59.744;18.206;2022-08-19T19:16:31;10.80;;;10.00;;
8683;SDS011;4379;59.744;18.206;2022-08-19T19:18:58;11.15;;;10.13;;
8683;SDS011;4379;59.744;18.206;2022-08-19T19:21:26;11.65;;;10.38;;
8683;SDS011;4379;59.744;18.206;2022-08-19T19:23:59;10.50;;;9.55;;
8683;SDS011;4379;59.744;18.206;2022-08-19T19:26:27;11.23;;;10.07;;
8683;SDS011;4379;59.744;18.206;2022-08-19T19:28:55;11.55;;;10.60;;
8683;SDS011;4379;59.744;18.206;2022-08-19T19:31:24;12.65;;;10.48;;
8683;SDS011;4379;59.744;18.206;2022-08-19T19:33:53;11.88;;;9.98;;
8683;SDS011;4379;59.744;18.206;2022-08-19T19:36:22;11.68;;;10.63;;
8683;SDS011;4379;59.744;18.206;2022-08-19T19:38:50;11.27;;;10.38;;
8683;SDS011;4379;59.744;18.206;2022-08-19T19:41:18;10.57;;;9.65;;
8683;SDS011;4379;59.744;18.206;2022-08-19T19:43:51;11.48;;;10.40;;
8683;SDS011;4379;59.744;18.206;2022-08-19T19:46:40;12.18;;;10.55;;
8683;SDS011;4379;59.744;18.206;2022-08-19T19:49:09;11.00;;;10.00;;
8683;SDS011;4379;59.744;18.206;2022-08-19T19:51:38;11.25;;;10.27;;
8683;SDS011;4379;59.744;18.206;2022-08-19T19:54:09;10.88;;;9.98;;
8683;SDS011;4379;59.744;18.206;2022-08-19T19:56:41;11.82;;;10.70;;
8683;SDS011;4379;59.744;18.206;2022-08-19T19:59:11;11.60;;;10.70;;
8683;SDS011;4379;59.744;18.206;2022-08-19T20:01:39;11.38;;;10.68;;
8683;SDS011;4379;59.744;18.206;2022-08-19T20:04:14;13.15;;;10.65;;
8683;SDS011;4379;59.744;18.206;2022-08-19T20:06:44;12.05;;;10.95;;
8683;SDS011;4379;59.744;18.206;2022-08-19T20:09:13;11.57;;;10.73;;
8683;SDS011;4379;59.744;18.206;2022-08-19T20:11:47;12.18;;;10.98;;